sensor_id;sensor_type;location;lat;lon;timestamp;pressure;altitude;pressure_sealevel;temperature;humidity
60583;BME280;46415;47.536;19.066;2023-07-08T00:00:48;-18757.75;;;19.52;82.91
60583;BME280;46415;47.536;19.066;2023-07-08T00:03:51;-18755.84;;;19.45;83.87
60583;BME280;46415;47.536;19.066;2023-07-08T00:06:54;-18752.19;;;19.31;84.71
60583;BME280;46415;47.536;19.066;2023-07-08T00:09:56;-18749.59;;;19.22;85.55
60583;BME280;46415;47.536;19.066;2023-07-08T00:12:59;-18745.53;;;19.06;87.18
60583;BME280;46415;47.536;19.066;2023-07-08T00:16:02;-18743.50;;;18.99;88.02
60583;BME280;46415;47.536;19.066;2023-07-08T00:19:07;-18742.53;;;18.95;89.54
60583;BME280;46415;47.536;19.066;2023-07-08T00:22:12;-18741.88;;;18.93;89.75
60583;BME280;46415;47.536;19.066;2023-07-08T00:25:18;-18741.44;;;18.91;91.04
60583;BME280;46415;47.536;19.066;2023-07-08T00:28:24;-18740.09;;;18.86;91.06
60583;BME280;46415;47.536;19.066;2023-07-08T00:31:26;-18738.47;;;18.80;89.96
60583;BME280;46415;47.536;19.066;2023-07-08T00:34:29;-18736.00;;;18.71;90.01
60583;BME280;46415;47.536;19.066;2023-07-08T00:37:31;-18735.19;;;18.68;89.57
60583;BME280;46415;47.536;19.066;2023-07-08T00:40:35;-18733.56;;;18.62;89.60
60583;BME280;46415;47.536;19.066;2023-07-08T00:43:39;-18731.94;;;18.56;89.96
60583;BME280;46415;47.536;19.066;2023-07-08T00:49:56;-18730.31;;;18.50;90.07
60583;BME280;46415;47.536;19.066;2023-07-08T00:53:21;-18728.41;;;18.43;90.64
60583;BME280;46415;47.536;19.066;2023-07-08T00:56:25;-18725.53;;;18.32;91.17
60583;BME280;46415;47.536;19.066;2023-07-08T00:59:36;-18721.72;;;18.18;92.75
60583;BME280;46415;47.536;19.066;2023-07-08T01:02:44;-18719.69;;;18.10;93.76
60583;BME280;46415;47.536;19.066;2023-07-08T01:05:48;-18719.69;;;18.10;93.50
60583;BME280;46415;47.536;19.066;2023-07-08T01:08:52;-18718.88;;;18.07;93.12
60583;BME280;46415;47.536;19.066;2023-07-08T01:12:01;-18717.78;;;18.03;93.28
60583;BME280;46415;47.536;19.066;2023-07-08T01:15:05;-18716.16;;;17.97;92.77
60583;BME280;46415;47.536;19.066;2023-07-08T01:18:09;-18714.81;;;17.92;93.03
60583;BME280;46415;47.536;19.066;2023-07-08T01:21:32;-18711.53;;;17.80;94.19
60583;BME280;46415;47.536;19.066;2023-07-08T01:24:36;-18711.13;;;17.78;94.13
60583;BME280;46415;47.536;19.066;2023-07-08T01:27:42;-18710.72;;;17.77;93.58
60583;BME280;46415;47.536;19.066;2023-07-08T01:30:46;-18709.75;;;17.73;94.95
60583;BME280;46415;47.536;19.066;2023-07-08T01:33:49;-18710.44;;;17.76;94.38
60583;BME280;46415;47.536;19.066;2023-07-08T01:36:54;-18708.28;;;17.68;95.38
60583;BME280;46415;47.536;19.066;2023-07-08T01:39:57;-18707.72;;;17.66;96.84
60583;BME280;46415;47.536;19.066;2023-07-08T01:43:00;-18706.63;;;17.62;97.65
60583;BME280;46415;47.536;19.066;2023-07-08T01:46:03;-18705.13;;;17.56;97.89
60583;BME280;46415;47.536;19.066;2023-07-08T01:49:11;-18702.00;;;17.44;98.82
60583;BME280;46415;47.536;19.066;2023-07-08T01:52:13;-18700.78;;;17.40;99.96
60583;BME280;46415;47.536;19.066;2023-07-08T01:55:21;-18699.00;;;17.33;100.00
60583;BME280;46415;47.536;19.066;2023-07-08T01:58:24;-18697.09;;;17.26;100.00
60583;BME280;46415;47.536;19.066;2023-07-08T02:01:27;-18696.56;;;17.24;100.00
60583;BME280;46415;47.536;19.066;2023-07-08T02:04:29;-18696.28;;;17.23;100.00
60583;BME280;46415;47.536;19.066;2023-07-08T02:07:32;-18696.41;;;17.24;100.00
60583;BME280;46415;47.536;19.066;2023-07-08T02:10:36;-18697.66;;;17.28;100.00
60583;BME280;46415;47.536;19.066;2023-07-08T02:13:39;-18697.91;;;17.29;100.00
60583;BME280;46415;47.536;19.066;2023-07-08T02:16:42;-18696.16;;;17.23;100.00
60583;BME280;46415;47.536;19.066;2023-07-08T02:19:44;-18693.97;;;17.14;100.00
60583;BME280;46415;47.536;19.066;2023-07-08T02:22:47;-18692.88;;;17.10;100.00
60583;BME280;46415;47.536;19.066;2023-07-08T02:25:52;-18691.78;;;17.06;100.00
60583;BME280;46415;47.536;19.066;2023-07-08T02:28:55;-18690.28;;;17.01;100.00
60583;BME280;46415;47.536;19.066;2023-07-08T02:31:58;-18691.53;;;17.05;98.29
60583;BME280;46415;47.536;19.066;2023-07-08T02:35:01;-18690.72;;;17.02;99.16
60583;BME280;46415;47.536;19.066;2023-07-08T02:38:05;-18688.94;;;16.96;99.65
60583;BME280;46415;47.536;19.066;2023-07-08T02:41:08;-18687.03;;;16.89;99.04
60583;BME280;46415;47.536;19.066;2023-07-08T02:44:10;-18684.31;;;16.79;99.42
60583;BME280;46415;47.536;19.066;2023-07-08T02:47:13;-18683.47;;;16.76;100.00
60583;BME280;46415;47.536;19.066;2023-07-08T02:50:15;-18681.44;;;16.68;100.00
60583;BME280;46415;47.536;19.066;2023-07-08T02:53:19;-18680.34;;;16.64;100.00
60583;BME280;46415;47.536;19.066;2023-07-08T02:56:21;-18680.09;;;16.63;100.00
60583;BME280;46415;47.536;19.066;2023-07-08T02:59:25;-18679.69;;;16.61;100.00
60583;BME280;46415;47.536;19.066;2023-07-08T03:02:27;-18679.81;;;16.62;100.00
60583;BME280;46415;47.536;19.066;2023-07-08T03:05:30;-18680.22;;;16.63;100.00
60583;BME280;46415;47.536;19.066;2023-07-08T03:08:33;-18680.63;;;16.65;100.00
60583;BME280;46415;47.536;19.066;2023-07-08T03:11:36;-18680.34;;;16.64;100.00
60583;BME280;46415;47.536;19.066;2023-07-08T03:14:38;-18680.75;;;16.65;100.00
60583;BME280;46415;47.536;19.066;2023-07-08T03:17:41;-18676.25;;;16.49;100.00
60583;BME280;46415;47.536;19.066;2023-07-08T03:20:44;-18674.63;;;16.43;100.00
60583;BME280;46415;47.536;19.066;2023-07-08T03:23:48;-18674.22;;;16.41;100.00
60583;BME280;46415;47.536;19.066;2023-07-08T03:26:50;-18675.31;;;16.45;100.00
60583;BME280;46415;47.536;19.066;2023-07-08T03:29:57;-18675.31;;;16.45;100.00
60583;BME280;46415;47.536;19.066;2023-07-08T03:32:59;-18677.63;;;16.54;100.00
60583;BME280;46415;47.536;19.066;2023-07-08T03:36:03;-18677.34;;;16.53;100.00
60583;BME280;46415;47.536;19.066;2023-07-08T03:39:05;-18677.63;;;16.54;100.00
60583;BME280;46415;47.536;19.066;2023-07-08T03:42:09;-18678.03;;;16.55;100.00
60583;BME280;46415;47.536;19.066;2023-07-08T03:45:11;-18679.41;;;16.60;100.00
60583;BME280;46415;47.536;19.066;2023-07-08T03:48:14;-18679.94;;;16.62;100.00
60583;BME280;46415;47.536;19.066;2023-07-08T03:51:20;-18680.50;;;16.64;100.00
60583;BME280;46415;47.536;19.066;2023-07-08T03:54:25;-18682.00;;;16.70;100.00
60583;BME280;46415;47.536;19.066;2023-07-08T03:57:28;-18682.53;;;16.72;100.00
60583;BME280;46415;47.536;19.066;2023-07-08T04:00:31;-18683.22;;;16.74;100.00
60583;BME280;46415;47.536;19.066;2023-07-08T04:03:35;-18683.47;;;16.76;100.00
60583;BME280;46415;47.536;19.066;2023-07-08T04:06:38;-18683.47;;;16.76;100.00
60583;BME280;46415;47.536;19.066;2023-07-08T04:09:41;-18684.84;;;16.81;100.00
60583;BME280;46415;47.536;19.066;2023-07-08T04:12:46;-18687.56;;;16.91;100.00
60583;BME280;46415;47.536;19.066;2023-07-08T04:15:56;-18688.94;;;16.96;100.00
60583;BME280;46415;47.536;19.066;2023-07-08T04:19:00;-18690.28;;;17.01;100.00
60583;BME280;46415;47.536;19.066;2023-07-08T04:22:03;-18690.72;;;17.02;100.00
60583;BME280;46415;47.536;19.066;2023-07-08T04:25:07;-18693.56;;;17.13;100.00
60583;BME280;46415;47.536;19.066;2023-07-08T04:28:10;-18695.75;;;17.21;99.98
60583;BME280;46415;47.536;19.066;2023-07-08T04:31:13;-18700.09;;;17.37;99.97
60583;BME280;46415;47.536;19.066;2023-07-08T04:34:18;-18705.41;;;17.57;99.37
60583;BME280;46415;47.536;19.066;2023-07-08T04:37:20;-18708.53;;;17.69;97.74
60583;BME280;46415;47.536;19.066;2023-07-08T04:40:23;-18711.81;;;17.81;96.81
60583;BME280;46415;47.536;19.066;2023-07-08T04:43:25;-18710.84;;;17.77;97.31
60583;BME280;46415;47.536;19.066;2023-07-08T04:49:46;-18715.63;;;17.95;96.18
60583;BME280;46415;47.536;19.066;2023-07-08T04:52:49;-18722.00;;;18.19;95.09
60583;BME280;46415;47.536;19.066;2023-07-08T04:55:54;-18725.94;;;18.33;93.43
60583;BME280;46415;47.536;19.066;2023-07-08T04:58:58;-18723.50;;;18.24;94.83
60583;BME280;46415;47.536;19.066;2023-07-08T05:02:00;-18728.66;;;18.44;94.51
60583;BME280;46415;47.536;19.066;2023-07-08T05:05:03;-18734.94;;;18.67;93.34
60583;BME280;46415;47.536;19.066;2023-07-08T05:08:06;-18741.19;;;18.90;91.41
60583;BME280;46415;47.536;19.066;2023-07-08T05:11:09;-18745.81;;;19.07;90.56
60583;BME280;46415;47.536;19.066;2023-07-08T05:14:12;-18750.28;;;19.24;91.04
60583;BME280;46415;47.536;19.066;2023-07-08T05:17:15;-18751.78;;;19.30;90.64
60583;BME280;46415;47.536;19.066;2023-07-08T05:20:18;-18758.97;;;19.56;89.15
60583;BME280;46415;47.536;19.066;2023-07-08T05:23:21;-18763.19;;;19.72;86.05
60583;BME280;46415;47.536;19.066;2023-07-08T05:26:23;-18749.47;;;19.21;88.17
60583;BME280;46415;47.536;19.066;2023-07-08T05:29:26;-18749.59;;;19.22;89.37
60583;BME280;46415;47.536;19.066;2023-07-08T05:32:29;-18749.47;;;19.21;88.62
60583;BME280;46415;47.536;19.066;2023-07-08T05:35:32;-18750.56;;;19.25;90.16
60583;BME280;46415;47.536;19.066;2023-07-08T05:38:34;-18755.19;;;19.42;86.77
60583;BME280;46415;47.536;19.066;2023-07-08T05:41:37;-18762.50;;;19.70;84.84
60583;BME280;46415;47.536;19.066;2023-07-08T05:44:39;-18768.09;;;19.90;83.34
60583;BME280;46415;47.536;19.066;2023-07-08T05:47:42;-18769.03;;;19.94;82.96
60583;BME280;46415;47.536;19.066;2023-07-08T05:50:45;-18776.50;;;20.22;79.79
60583;BME280;46415;47.536;19.066;2023-07-08T05:53:48;-18778.66;;;20.30;74.54
60583;BME280;46415;47.536;19.066;2023-07-08T05:56:50;-18779.63;;;20.33;74.46
60583;BME280;46415;47.536;19.066;2023-07-08T05:59:53;-18789.53;;;20.70;71.54
60583;BME280;46415;47.536;19.066;2023-07-08T06:02:55;-18795.09;;;20.91;73.18
60583;BME280;46415;47.536;19.066;2023-07-08T06:05:58;-18802.69;;;21.20;70.32
60583;BME280;46415;47.536;19.066;2023-07-08T06:09:01;-18799.97;;;21.09;71.63
60583;BME280;46415;47.536;19.066;2023-07-08T06:12:04;-18804.19;;;21.25;72.94
60583;BME280;46415;47.536;19.066;2023-07-08T06:15:06;-18811.91;;;21.54;70.09
60583;BME280;46415;47.536;19.066;2023-07-08T06:18:09;-18812.31;;;21.55;70.98
60583;BME280;46415;47.536;19.066;2023-07-08T06:21:12;-18819.63;;;21.83;68.91
60583;BME280;46415;47.536;19.066;2023-07-08T06:24:15;-18824.13;;;21.99;65.92
60583;BME280;46415;47.536;19.066;2023-07-08T06:27:17;-18828.59;;;22.16;62.54
60583;BME280;46415;47.536;19.066;2023-07-08T06:30:20;-18832.38;;;22.30;56.88
60583;BME280;46415;47.536;19.066;2023-07-08T06:33:22;-18835.91;;;22.44;58.90
60583;BME280;46415;47.536;19.066;2023-07-08T06:36:25;-18842.94;;;22.70;59.90
60583;BME280;46415;47.536;19.066;2023-07-08T06:39:27;-18843.63;;;22.72;59.91
60583;BME280;46415;47.536;19.066;2023-07-08T06:42:30;-18843.63;;;22.72;59.72
60583;BME280;46415;47.536;19.066;2023-07-08T06:45:34;-18846.19;;;22.82;59.67
60583;BME280;46415;47.536;19.066;2023-07-08T06:48:37;-18853.09;;;23.08;59.65
60583;BME280;46415;47.536;19.066;2023-07-08T06:51:39;-18861.09;;;23.38;58.99
60583;BME280;46415;47.536;19.066;2023-07-08T06:54:42;-18861.50;;;23.39;58.69
60583;BME280;46415;47.536;19.066;2023-07-08T06:57:44;-18856.63;;;23.21;58.13
60583;BME280;46415;47.536;19.066;2023-07-08T07:00:47;-18858.09;;;23.27;57.11
60583;BME280;46415;47.536;19.066;2023-07-08T07:03:50;-18869.19;;;23.68;58.17
60583;BME280;46415;47.536;19.066;2023-07-08T07:06:52;-18878.00;;;24.01;55.00
60583;BME280;46415;47.536;19.066;2023-07-08T07:09:55;-18879.63;;;24.07;55.30
60583;BME280;46415;47.536;19.066;2023-07-08T07:12:58;-18878.00;;;24.01;54.72
60583;BME280;46415;47.536;19.066;2023-07-08T07:16:01;-18883.81;;;24.23;54.52
60583;BME280;46415;47.536;19.066;2023-07-08T07:19:04;-18890.16;;;24.47;51.50
60583;BME280;46415;47.536;19.066;2023-07-08T07:22:06;-18897.88;;;24.75;48.50
60583;BME280;46415;47.536;19.066;2023-07-08T07:25:09;-18900.84;;;24.87;46.44
60583;BME280;46415;47.536;19.066;2023-07-08T07:28:12;-18902.59;;;24.93;45.98
60583;BME280;46415;47.536;19.066;2023-07-08T07:31:15;-18904.91;;;25.02;47.13
60583;BME280;46415;47.536;19.066;2023-07-08T07:34:17;-18905.84;;;25.05;47.50
60583;BME280;46415;47.536;19.066;2023-07-08T07:37:20;-18911.50;;;25.27;44.46
60583;BME280;46415;47.536;19.066;2023-07-08T07:40:23;-18909.50;;;25.19;45.36
60583;BME280;46415;47.536;19.066;2023-07-08T07:43:26;-18906.38;;;25.07;43.31
60583;BME280;46415;47.536;19.066;2023-07-08T07:46:29;-18905.44;;;25.04;44.90
60583;BME280;46415;47.536;19.066;2023-07-08T07:49:32;-18909.22;;;25.18;45.31
60583;BME280;46415;47.536;19.066;2023-07-08T07:52:35;-18910.56;;;25.23;44.71
60583;BME280;46415;47.536;19.066;2023-07-08T07:55:38;-18914.06;;;25.36;44.44
60583;BME280;46415;47.536;19.066;2023-07-08T07:58:40;-18917.84;;;25.50;42.20
60583;BME280;46415;47.536;19.066;2023-07-08T08:01:43;-18925.41;;;25.79;42.30
60583;BME280;46415;47.536;19.066;2023-07-08T08:04:46;-18931.75;;;26.02;42.06
60583;BME280;46415;47.536;19.066;2023-07-08T08:07:48;-18933.78;;;26.10;41.14
60583;BME280;46415;47.536;19.066;2023-07-08T08:10:51;-18932.72;;;26.06;40.92
60583;BME280;46415;47.536;19.066;2023-07-08T08:13:54;-18933.91;;;26.11;41.23
60583;BME280;46415;47.536;19.066;2023-07-08T08:16:57;-18934.06;;;26.11;40.08
60583;BME280;46415;47.536;19.066;2023-07-08T08:19:59;-18936.34;;;26.20;40.07
60583;BME280;46415;47.536;19.066;2023-07-08T08:23:05;-18931.50;;;26.01;40.31
60583;BME280;46415;47.536;19.066;2023-07-08T08:26:08;-18934.31;;;26.12;40.61
60583;BME280;46415;47.536;19.066;2023-07-08T08:29:11;-18940.00;;;26.33;40.84
60583;BME280;46415;47.536;19.066;2023-07-08T08:32:14;-18944.03;;;26.49;39.78
60583;BME280;46415;47.536;19.066;2023-07-08T08:35:16;-18945.94;;;26.56;40.93
60583;BME280;46415;47.536;19.066;2023-07-08T08:38:19;-18947.41;;;26.61;40.23
60583;BME280;46415;47.536;19.066;2023-07-08T08:41:28;-18943.78;;;26.48;40.67
60583;BME280;46415;47.536;19.066;2023-07-08T08:44:32;-18948.63;;;26.66;40.87
60583;BME280;46415;47.536;19.066;2023-07-08T08:47:37;-18955.50;;;26.92;41.55
60583;BME280;46415;47.536;19.066;2023-07-08T08:50:49;-18958.06;;;27.01;40.47
60583;BME280;46415;47.536;19.066;2023-07-08T08:53:53;-18963.19;;;27.20;39.83
60583;BME280;46415;47.536;19.066;2023-07-08T09:00:00;-18968.44;;;27.40;39.08
60583;BME280;46415;47.536;19.066;2023-07-08T09:03:04;-18969.12;;;27.43;40.30
60583;BME280;46415;47.536;19.066;2023-07-08T09:06:14;-18974.38;;;27.62;38.95
60583;BME280;46415;47.536;19.066;2023-07-08T09:09:21;-18978.13;;;27.77;38.68
60583;BME280;46415;47.536;19.066;2023-07-08T09:12:27;-18985.28;;;28.03;38.69
60583;BME280;46415;47.536;19.066;2023-07-08T09:15:31;-18982.84;;;27.94;38.85
60583;BME280;46415;47.536;19.066;2023-07-08T09:25:22;-18987.44;;;28.12;37.42
60583;BME280;46415;47.536;19.066;2023-07-08T09:28:21;-18987.16;;;28.11;37.37
60583;BME280;46415;47.536;19.066;2023-07-08T09:34:37;-18980.44;;;27.85;37.07
60583;BME280;46415;47.536;19.066;2023-07-08T09:37:40;-18984.47;;;28.00;37.28
60583;BME280;46415;47.536;19.066;2023-07-08T09:40:48;-18995.50;;;28.42;36.35
60583;BME280;46415;47.536;19.066;2023-07-08T09:43:53;-19007.09;;;28.86;36.27
60583;BME280;46415;47.536;19.066;2023-07-08T09:47:15;-19012.31;;;29.05;35.67
60583;BME280;46415;47.536;19.066;2023-07-08T09:50:26;-19005.06;;;28.78;35.95
60583;BME280;46415;47.536;19.066;2023-07-08T09:53:29;-18989.44;;;28.19;35.82
60583;BME280;46415;47.536;19.066;2023-07-08T09:56:32;-18979.34;;;27.81;37.45
60583;BME280;46415;47.536;19.066;2023-07-08T09:59:43;-18976.12;;;27.69;36.16
60583;BME280;46415;47.536;19.066;2023-07-08T10:02:52;-18973.97;;;27.61;34.88
60583;BME280;46415;47.536;19.066;2023-07-08T10:05:57;-18972.47;;;27.55;35.77
60583;BME280;46415;47.536;19.066;2023-07-08T10:09:04;-18977.06;;;27.73;34.84
60583;BME280;46415;47.536;19.066;2023-07-08T10:12:08;-18974.09;;;27.61;36.76
60583;BME280;46415;47.536;19.066;2023-07-08T10:15:17;-18973.16;;;27.58;35.08
60583;BME280;46415;47.536;19.066;2023-07-08T10:18:24;-18975.59;;;27.67;36.28
60583;BME280;46415;47.536;19.066;2023-07-08T10:21:48;-18985.81;;;28.06;36.28
60583;BME280;46415;47.536;19.066;2023-07-08T10:31:20;-19029.13;;;29.69;33.74
60583;BME280;46415;47.536;19.066;2023-07-08T10:37:36;-19033.03;;;29.83;31.71
60583;BME280;46415;47.536;19.066;2023-07-08T10:40:53;-19041.38;;;30.15;32.27
60583;BME280;46415;47.536;19.066;2023-07-08T10:53:36;-19044.59;;;30.27;30.88
60583;BME280;46415;47.536;19.066;2023-07-08T10:59:59;-19034.78;;;29.90;30.43
60583;BME280;46415;47.536;19.066;2023-07-08T11:06:14;-19036.00;;;29.94;30.93
60583;BME280;46415;47.536;19.066;2023-07-08T11:09:30;-19035.84;;;29.94;30.40
60583;BME280;46415;47.536;19.066;2023-07-08T11:15:50;-19027.78;;;29.63;30.56
60583;BME280;46415;47.536;19.066;2023-07-08T11:19:05;-19044.31;;;30.26;30.72
60583;BME280;46415;47.536;19.066;2023-07-08T11:22:09;-19044.44;;;30.26;29.93
60583;BME280;46415;47.536;19.066;2023-07-08T11:25:16;-19044.44;;;30.26;29.26
60583;BME280;46415;47.536;19.066;2023-07-08T11:28:20;-19052.25;;;30.56;29.96
60583;BME280;46415;47.536;19.066;2023-07-08T11:31:25;-19053.31;;;30.60;30.12
60583;BME280;46415;47.536;19.066;2023-07-08T11:34:28;-19060.69;;;30.88;28.70
60583;BME280;46415;47.536;19.066;2023-07-08T11:37:31;-19060.03;;;30.85;28.30
60583;BME280;46415;47.536;19.066;2023-07-08T11:40:38;-19059.75;;;30.84;29.26
60583;BME280;46415;47.536;19.066;2023-07-08T11:43:57;-19054.53;;;30.64;28.56
60583;BME280;46415;47.536;19.066;2023-07-08T11:47:00;-19042.97;;;30.21;29.50
60583;BME280;46415;47.536;19.066;2023-07-08T11:50:15;-19049.69;;;30.46;28.39
60583;BME280;46415;47.536;19.066;2023-07-08T11:56:48;-19058.69;;;30.80;28.92
60583;BME280;46415;47.536;19.066;2023-07-08T12:00:06;-19059.34;;;30.82;27.81
60583;BME280;46415;47.536;19.066;2023-07-08T12:03:18;-19060.03;;;30.85;28.46
60583;BME280;46415;47.536;19.066;2023-07-08T12:06:44;-19054.00;;;30.62;28.75
60583;BME280;46415;47.536;19.066;2023-07-08T12:09:48;-19052.63;;;30.57;29.22
60583;BME280;46415;47.536;19.066;2023-07-08T12:12:52;-19034.78;;;29.90;28.80
60583;BME280;46415;47.536;19.066;2023-07-08T12:15:54;-19031.28;;;29.77;29.16
60583;BME280;46415;47.536;19.066;2023-07-08T12:18:58;-19027.38;;;29.62;29.11
60583;BME280;46415;47.536;19.066;2023-07-08T12:22:01;-19034.09;;;29.87;28.48
60583;BME280;46415;47.536;19.066;2023-07-08T12:25:07;-19044.72;;;30.27;28.97
60583;BME280;46415;47.536;19.066;2023-07-08T12:28:11;-19045.13;;;30.29;29.01
60583;BME280;46415;47.536;19.066;2023-07-08T12:31:20;-19050.75;;;30.50;30.13
60583;BME280;46415;47.536;19.066;2023-07-08T12:34:23;-19055.19;;;30.67;29.47
60583;BME280;46415;47.536;19.066;2023-07-08T12:37:27;-19058.81;;;30.80;29.17
60583;BME280;46415;47.536;19.066;2023-07-08T12:40:30;-19063.09;;;30.97;28.87
60583;BME280;46415;47.536;19.066;2023-07-08T12:43:33;-19063.66;;;30.99;28.05
60583;BME280;46415;47.536;19.066;2023-07-08T12:46:36;-19059.34;;;30.82;27.98
60583;BME280;46415;47.536;19.066;2023-07-08T12:49:38;-19059.87;;;30.85;28.05
60583;BME280;46415;47.536;19.066;2023-07-08T12:52:44;-19045.53;;;30.30;28.03
60583;BME280;46415;47.536;19.066;2023-07-08T12:55:47;-19046.19;;;30.33;28.56
60583;BME280;46415;47.536;19.066;2023-07-08T12:58:58;-19044.84;;;30.28;28.84
60583;BME280;46415;47.536;19.066;2023-07-08T13:02:02;-19048.06;;;30.40;29.33
60583;BME280;46415;47.536;19.066;2023-07-08T13:05:04;-19047.69;;;30.38;28.27
60583;BME280;46415;47.536;19.066;2023-07-08T13:08:14;-19051.84;;;30.54;28.53
60583;BME280;46415;47.536;19.066;2023-07-08T13:11:18;-19056.81;;;30.73;28.86
60583;BME280;46415;47.536;19.066;2023-07-08T13:14:23;-19056.25;;;30.71;28.32
60583;BME280;46415;47.536;19.066;2023-07-08T13:17:26;-19056.12;;;30.70;28.74
60583;BME280;46415;47.536;19.066;2023-07-08T13:20:30;-19058.56;;;30.79;28.70
60583;BME280;46415;47.536;19.066;2023-07-08T13:23:32;-19062.97;;;30.96;28.60
60583;BME280;46415;47.536;19.066;2023-07-08T13:26:36;-19060.56;;;30.87;28.05
60583;BME280;46415;47.536;19.066;2023-07-08T13:29:39;-19061.38;;;30.90;28.04
60583;BME280;46415;47.536;19.066;2023-07-08T13:32:42;-19058.81;;;30.80;28.23
60583;BME280;46415;47.536;19.066;2023-07-08T13:35:44;-19060.16;;;30.86;27.97
60583;BME280;46415;47.536;19.066;2023-07-08T13:38:48;-19059.09;;;30.81;28.95
60583;BME280;46415;47.536;19.066;2023-07-08T13:41:52;-19063.66;;;30.99;28.23
60583;BME280;46415;47.536;19.066;2023-07-08T13:44:54;-19059.63;;;30.83;27.81
60583;BME280;46415;47.536;19.066;2023-07-08T13:47:58;-19061.91;;;30.92;28.12
60583;BME280;46415;47.536;19.066;2023-07-08T13:51:03;-19062.16;;;30.93;28.14
60583;BME280;46415;47.536;19.066;2023-07-08T13:57:17;-19053.84;;;30.62;27.67
60583;BME280;46415;47.536;19.066;2023-07-08T14:00:19;-19064.31;;;31.01;27.50
60583;BME280;46415;47.536;19.066;2023-07-08T14:03:22;-19067.53;;;31.13;27.14
60583;BME280;46415;47.536;19.066;2023-07-08T14:06:25;-19059.75;;;30.84;27.37
60583;BME280;46415;47.536;19.066;2023-07-08T14:09:30;-19054.66;;;30.65;27.66
60583;BME280;46415;47.536;19.066;2023-07-08T14:12:33;-19060.16;;;30.86;27.32
60583;BME280;46415;47.536;19.066;2023-07-08T14:15:36;-19069.41;;;31.20;27.12
60583;BME280;46415;47.536;19.066;2023-07-08T14:18:39;-19068.63;;;31.17;26.24
60583;BME280;46415;47.536;19.066;2023-07-08T14:21:41;-19075.44;;;31.43;26.43
60583;BME280;46415;47.536;19.066;2023-07-08T14:24:44;-19078.41;;;31.54;26.29
60583;BME280;46415;47.536;19.066;2023-07-08T14:27:47;-19085.66;;;31.82;26.67
60583;BME280;46415;47.536;19.066;2023-07-08T14:30:49;-19096.38;;;32.22;25.93
60583;BME280;46415;47.536;19.066;2023-07-08T14:33:55;-19100.53;;;32.38;25.20
60583;BME280;46415;47.536;19.066;2023-07-08T14:37:02;-19107.09;;;32.63;25.85
60583;BME280;46415;47.536;19.066;2023-07-08T14:40:14;-19110.03;;;32.74;24.79
60583;BME280;46415;47.536;19.066;2023-07-08T14:43:21;-19122.75;;;33.22;23.99
60583;BME280;46415;47.536;19.066;2023-07-08T14:46:27;-19129.72;;;33.48;23.83
60583;BME280;46415;47.536;19.066;2023-07-08T14:49:29;-19139.19;;;33.84;23.72
60583;BME280;46415;47.536;19.066;2023-07-08T14:52:32;-19147.09;;;34.14;23.44
60583;BME280;46415;47.536;19.066;2023-07-08T14:55:35;-19172.34;;;35.10;22.88
60583;BME280;46415;47.536;19.066;2023-07-08T14:58:39;-19199.03;;;36.11;21.68
60583;BME280;46415;47.536;19.066;2023-07-08T15:01:43;-19230.19;;;37.30;20.24
60583;BME280;46415;47.536;19.066;2023-07-08T15:04:46;-19261.47;;;38.49;19.08
60583;BME280;46415;47.536;19.066;2023-07-08T15:07:52;-19290.03;;;39.57;18.20
60583;BME280;46415;47.536;19.066;2023-07-08T15:10:55;-19336.56;;;41.35;17.45
60583;BME280;46415;47.536;19.066;2023-07-08T15:14:01;-19359.56;;;42.23;16.10
60583;BME280;46415;47.536;19.066;2023-07-08T15:17:14;-19379.41;;;42.99;15.38
60583;BME280;46415;47.536;19.066;2023-07-08T15:20:20;-19416.59;;;44.42;14.63
60583;BME280;46415;47.536;19.066;2023-07-08T15:23:24;-19429.25;;;44.91;13.77
60583;BME280;46415;47.536;19.066;2023-07-08T15:26:28;-19449.28;;;45.68;13.51
60583;BME280;46415;47.536;19.066;2023-07-08T15:29:30;-19453.34;;;45.83;13.73
60583;BME280;46415;47.536;19.066;2023-07-08T15:32:34;-19458.22;;;46.02;12.79
60583;BME280;46415;47.536;19.066;2023-07-08T15:35:42;-19443.63;;;45.46;13.08
60583;BME280;46415;47.536;19.066;2023-07-08T15:38:46;-19458.75;;;46.04;13.07
60583;BME280;46415;47.536;19.066;2023-07-08T15:41:49;-19446.63;;;45.58;13.23
60583;BME280;46415;47.536;19.066;2023-07-08T15:44:51;-19447.81;;;45.62;13.80
60583;BME280;46415;47.536;19.066;2023-07-08T15:47:56;-19447.44;;;45.61;13.90
60583;BME280;46415;47.536;19.066;2023-07-08T15:50:59;-19454.41;;;45.87;13.58
60583;BME280;46415;47.536;19.066;2023-07-08T15:54:02;-19446.38;;;45.57;13.30
60583;BME280;46415;47.536;19.066;2023-07-08T15:57:04;-19454.28;;;45.87;13.17
60583;BME280;46415;47.536;19.066;2023-07-08T16:00:11;-19470.44;;;46.49;12.79
60583;BME280;46415;47.536;19.066;2023-07-08T16:03:28;-19470.03;;;46.48;12.85
60583;BME280;46415;47.536;19.066;2023-07-08T16:06:31;-19459.41;;;46.07;12.70
60583;BME280;46415;47.536;19.066;2023-07-08T16:09:33;-19468.19;;;46.41;12.90
60583;BME280;46415;47.536;19.066;2023-07-08T16:12:37;-19449.78;;;45.70;13.32
60583;BME280;46415;47.536;19.066;2023-07-08T16:15:40;-19413.31;;;44.29;14.13
60583;BME280;46415;47.536;19.066;2023-07-08T16:18:44;-19377.69;;;42.93;15.17
60583;BME280;46415;47.536;19.066;2023-07-08T16:21:47;-19316.69;;;40.59;16.93
60583;BME280;46415;47.536;19.066;2023-07-08T16:24:49;-19247.09;;;37.94;19.50
60583;BME280;46415;47.536;19.066;2023-07-08T16:27:52;-19199.69;;;36.14;21.10
60583;BME280;46415;47.536;19.066;2023-07-08T16:30:55;-19152.31;;;34.34;23.29
60583;BME280;46415;47.536;19.066;2023-07-08T16:33:57;-19127.97;;;33.42;24.98
60583;BME280;46415;47.536;19.066;2023-07-08T16:37:01;-19118.47;;;33.06;24.89
60583;BME280;46415;47.536;19.066;2023-07-08T16:40:05;-19099.97;;;32.36;25.64
60583;BME280;46415;47.536;19.066;2023-07-08T16:43:29;-19085.66;;;31.82;26.74